sensor_id;sensor_type;location;lat;lon;timestamp;P1;durP1;ratioP1;P2;durP2;ratioP2
27375;SDS011;14844;51.302;6.354;2022-08-21T00:01:48;10.57;;;3.35;;
27375;SDS011;14844;51.302;6.354;2022-08-21T00:04:13;10.35;;;3.47;;
27375;SDS011;14844;51.302;6.354;2022-08-21T00:06:39;9.73;;;3.53;;
27375;SDS011;14844;51.302;6.354;2022-08-21T00:09:06;9.50;;;3.20;;
27375;SDS011;14844;51.302;6.354;2022-08-21T00:11:33;9.02;;;3.97;;
27375;SDS011;14844;51.302;6.354;2022-08-21T00:14:00;10.52;;;3.60;;
27375;SDS011;14844;51.302;6.354;2022-08-21T00:16:26;9.93;;;4.10;;
27375;SDS011;14844;51.302;6.354;2022-08-21T00:18:51;7.18;;;4.03;;
27375;SDS011;14844;51.302;6.354;2022-08-21T00:21:17;9.45;;;4.07;;
27375;SDS011;14844;51.302;6.354;2022-08-21T00:23:43;9.70;;;4.20;;
27375;SDS011;14844;51.302;6.354;2022-08-21T00:26:09;8.65;;;4.00;;
27375;SDS011;14844;51.302;6.354;2022-08-21T00:28:35;10.23;;;4.00;;
27375;SDS011;14844;51.302;6.354;2022-08-21T00:31:00;11.75;;;4.00;;
27375;SDS011;14844;51.302;6.354;2022-08-21T00:33:29;12.48;;;4.30;;
27375;SDS011;14844;51.302;6.354;2022-08-21T00:35:55;8.48;;;4.50;;
27375;SDS011;14844;51.302;6.354;2022-08-21T00:38:21;10.57;;;6.15;;
27375;SDS011;14844;51.302;6.354;2022-08-21T00:40:50;10.20;;;5.18;;
27375;SDS011;14844;51.302;6.354;2022-08-21T00:43:24;8.88;;;4.93;;
27375;SDS011;14844;51.302;6.354;2022-08-21T00:45:53;9.98;;;4.90;;
27375;SDS011;14844;51.302;6.354;2022-08-21T00:48:22;15.63;;;6.35;;
27375;SDS011;14844;51.302;6.354;2022-08-21T00:50:54;10.38;;;4.95;;
27375;SDS011;14844;51.302;6.354;2022-08-21T00:53:23;13.30;;;5.32;;
27375;SDS011;14844;51.302;6.354;2022-08-21T00:55:52;9.60;;;4.82;;
27375;SDS011;14844;51.302;6.354;2022-08-21T00:58:19;12.00;;;4.47;;
27375;SDS011;14844;51.302;6.354;2022-08-21T01:00:46;10.98;;;4.03;;
27375;SDS011;14844;51.302;6.354;2022-08-21T01:03:18;13.32;;;4.40;;
27375;SDS011;14844;51.302;6.354;2022-08-21T01:05:46;14.85;;;3.88;;
27375;SDS011;14844;51.302;6.354;2022-08-21T01:08:12;7.97;;;3.80;;
27375;SDS011;14844;51.302;6.354;2022-08-21T01:10:39;9.98;;;4.00;;
27375;SDS011;14844;51.302;6.354;2022-08-21T01:13:06;9.73;;;3.88;;
27375;SDS011;14844;51.302;6.354;2022-08-21T01:15:35;10.48;;;4.03;;
27375;SDS011;14844;51.302;6.354;2022-08-21T01:18:06;13.32;;;4.30;;
27375;SDS011;14844;51.302;6.354;2022-08-21T01:20:33;9.52;;;4.00;;
27375;SDS011;14844;51.302;6.354;2022-08-21T01:23:00;8.30;;;4.00;;
27375;SDS011;14844;51.302;6.354;2022-08-21T01:25:28;9.93;;;3.97;;
27375;SDS011;14844;51.302;6.354;2022-08-21T01:27:53;7.72;;;4.15;;
27375;SDS011;14844;51.302;6.354;2022-08-21T01:30:21;10.80;;;5.28;;
27375;SDS011;14844;51.302;6.354;2022-08-21T01:32:51;13.77;;;5.90;;
27375;SDS011;14844;51.302;6.354;2022-08-21T01:35:19;14.73;;;6.60;;
27375;SDS011;14844;51.302;6.354;2022-08-21T01:37:46;15.10;;;7.43;;
27375;SDS011;14844;51.302;6.354;2022-08-21T01:40:12;16.63;;;8.50;;
27375;SDS011;14844;51.302;6.354;2022-08-21T01:42:41;13.30;;;8.23;;
27375;SDS011;14844;51.302;6.354;2022-08-21T01:45:07;12.00;;;6.65;;
27375;SDS011;14844;51.302;6.354;2022-08-21T01:47:34;17.73;;;8.65;;
27375;SDS011;14844;51.302;6.354;2022-08-21T01:50:00;15.60;;;8.75;;
27375;SDS011;14844;51.302;6.354;2022-08-21T01:52:26;11.85;;;7.93;;
27375;SDS011;14844;51.302;6.354;2022-08-21T01:54:53;16.98;;;10.48;;
27375;SDS011;14844;51.302;6.354;2022-08-21T01:57:19;19.30;;;10.13;;
27375;SDS011;14844;51.302;6.354;2022-08-21T01:59:44;16.00;;;10.68;;
27375;SDS011;14844;51.302;6.354;2022-08-21T02:02:10;18.73;;;9.25;;
27375;SDS011;14844;51.302;6.354;2022-08-21T02:04:36;13.27;;;8.70;;
27375;SDS011;14844;51.302;6.354;2022-08-21T02:07:02;12.00;;;8.10;;
27375;SDS011;14844;51.302;6.354;2022-08-21T02:09:28;15.77;;;8.13;;
27375;SDS011;14844;51.302;6.354;2022-08-21T02:11:54;14.68;;;7.88;;
27375;SDS011;14844;51.302;6.354;2022-08-21T02:14:20;14.10;;;8.02;;
27375;SDS011;14844;51.302;6.354;2022-08-21T02:16:46;12.13;;;7.50;;
27375;SDS011;14844;51.302;6.354;2022-08-21T02:19:12;16.17;;;8.45;;
27375;SDS011;14844;51.302;6.354;2022-08-21T02:21:39;15.13;;;9.27;;
27375;SDS011;14844;51.302;6.354;2022-08-21T02:24:06;16.17;;;8.68;;
27375;SDS011;14844;51.302;6.354;2022-08-21T02:26:32;20.92;;;9.90;;
27375;SDS011;14844;51.302;6.354;2022-08-21T02:28:58;16.25;;;10.23;;
27375;SDS011;14844;51.302;6.354;2022-08-21T02:31:24;18.35;;;10.32;;
27375;SDS011;14844;51.302;6.354;2022-08-21T02:33:50;15.32;;;10.45;;
27375;SDS011;14844;51.302;6.354;2022-08-21T02:36:16;15.73;;;10.43;;
27375;SDS011;14844;51.302;6.354;2022-08-21T02:38:42;17.63;;;11.75;;
27375;SDS011;14844;51.302;6.354;2022-08-21T02:41:10;18.80;;;11.50;;
27375;SDS011;14844;51.302;6.354;2022-08-21T02:46:06;20.35;;;12.32;;
27375;SDS011;14844;51.302;6.354;2022-08-21T02:48:33;18.30;;;11.50;;
27375;SDS011;14844;51.302;6.354;2022-08-21T02:51:08;15.50;;;10.38;;
27375;SDS011;14844;51.302;6.354;2022-08-21T02:53:35;17.75;;;10.98;;
27375;SDS011;14844;51.302;6.354;2022-08-21T02:56:03;16.95;;;10.38;;
27375;SDS011;14844;51.302;6.354;2022-08-21T02:58:32;15.52;;;10.15;;
27375;SDS011;14844;51.302;6.354;2022-08-21T03:01:00;16.65;;;11.35;;
27375;SDS011;14844;51.302;6.354;2022-08-21T03:03:26;26.73;;;14.32;;
27375;SDS011;14844;51.302;6.354;2022-08-21T03:05:55;31.45;;;18.83;;
27375;SDS011;14844;51.302;6.354;2022-08-21T03:08:21;27.77;;;19.35;;
27375;SDS011;14844;51.302;6.354;2022-08-21T03:10:48;27.08;;;18.63;;
27375;SDS011;14844;51.302;6.354;2022-08-21T03:13:16;27.00;;;18.10;;
27375;SDS011;14844;51.302;6.354;2022-08-21T03:15:42;33.53;;;18.67;;
27375;SDS011;14844;51.302;6.354;2022-08-21T03:18:11;31.30;;;18.20;;
27375;SDS011;14844;51.302;6.354;2022-08-21T03:20:37;28.60;;;17.50;;
27375;SDS011;14844;51.302;6.354;2022-08-21T03:23:05;27.23;;;17.17;;
27375;SDS011;14844;51.302;6.354;2022-08-21T03:25:32;23.98;;;16.67;;
27375;SDS011;14844;51.302;6.354;2022-08-21T03:27:59;28.52;;;16.77;;
27375;SDS011;14844;51.302;6.354;2022-08-21T03:30:29;20.75;;;15.77;;
27375;SDS011;14844;51.302;6.354;2022-08-21T03:32:56;20.70;;;14.20;;
27375;SDS011;14844;51.302;6.354;2022-08-21T03:35:26;21.48;;;15.48;;
27375;SDS011;14844;51.302;6.354;2022-08-21T03:37:52;28.35;;;16.30;;
27375;SDS011;14844;51.302;6.354;2022-08-21T03:40:19;27.60;;;16.13;;
27375;SDS011;14844;51.302;6.354;2022-08-21T03:42:46;28.42;;;15.55;;
27375;SDS011;14844;51.302;6.354;2022-08-21T03:45:12;24.60;;;15.65;;
27375;SDS011;14844;51.302;6.354;2022-08-21T03:47:49;30.40;;;15.60;;
27375;SDS011;14844;51.302;6.354;2022-08-21T03:50:23;29.05;;;14.40;;
27375;SDS011;14844;51.302;6.354;2022-08-21T03:52:52;23.45;;;12.82;;
27375;SDS011;14844;51.302;6.354;2022-08-21T03:55:18;21.70;;;11.82;;
27375;SDS011;14844;51.302;6.354;2022-08-21T03:57:44;21.02;;;11.73;;
27375;SDS011;14844;51.302;6.354;2022-08-21T04:00:10;19.02;;;11.10;;
27375;SDS011;14844;51.302;6.354;2022-08-21T04:02:37;25.25;;;10.75;;
27375;SDS011;14844;51.302;6.354;2022-08-21T04:05:04;20.60;;;10.43;;
27375;SDS011;14844;51.302;6.354;2022-08-21T04:07:30;19.42;;;10.10;;
27375;SDS011;14844;51.302;6.354;2022-08-21T04:09:55;19.70;;;10.05;;
27375;SDS011;14844;51.302;6.354;2022-08-21T04:12:21;23.00;;;10.63;;
27375;SDS011;14844;51.302;6.354;2022-08-21T04:14:47;24.65;;;10.40;;
27375;SDS011;14844;51.302;6.354;2022-08-21T04:17:12;17.38;;;9.60;;
27375;SDS011;14844;51.302;6.354;2022-08-21T04:19:38;24.10;;;10.40;;
27375;SDS011;14844;51.302;6.354;2022-08-21T04:22:03;21.58;;;10.73;;
27375;SDS011;14844;51.302;6.354;2022-08-21T04:24:29;20.48;;;10.93;;
27375;SDS011;14844;51.302;6.354;2022-08-21T04:26:55;19.95;;;11.18;;
27375;SDS011;14844;51.302;6.354;2022-08-21T04:29:20;20.92;;;10.98;;
27375;SDS011;14844;51.302;6.354;2022-08-21T04:31:46;20.08;;;10.25;;
27375;SDS011;14844;51.302;6.354;2022-08-21T04:34:11;15.70;;;10.65;;
27375;SDS011;14844;51.302;6.354;2022-08-21T04:36:38;21.15;;;10.73;;
27375;SDS011;14844;51.302;6.354;2022-08-21T04:39:03;16.73;;;10.15;;
27375;SDS011;14844;51.302;6.354;2022-08-21T04:41:29;18.17;;;11.13;;
27375;SDS011;14844;51.302;6.354;2022-08-21T04:43:55;24.30;;;11.10;;
27375;SDS011;14844;51.302;6.354;2022-08-21T04:46:21;19.73;;;11.52;;
27375;SDS011;14844;51.302;6.354;2022-08-21T04:48:47;18.90;;;10.70;;
27375;SDS011;14844;51.302;6.354;2022-08-21T04:51:17;19.02;;;10.85;;
27375;SDS011;14844;51.302;6.354;2022-08-21T04:56:19;18.63;;;10.20;;
27375;SDS011;14844;51.302;6.354;2022-08-21T04:58:52;19.70;;;10.02;;
27375;SDS011;14844;51.302;6.354;2022-08-21T05:01:21;19.75;;;9.57;;
27375;SDS011;14844;51.302;6.354;2022-08-21T05:03:49;17.23;;;9.02;;
27375;SDS011;14844;51.302;6.354;2022-08-21T05:06:18;18.42;;;10.07;;
27375;SDS011;14844;51.302;6.354;2022-08-21T05:08:45;25.08;;;10.45;;
27375;SDS011;14844;51.302;6.354;2022-08-21T05:11:13;19.33;;;9.90;;
27375;SDS011;14844;51.302;6.354;2022-08-21T05:13:39;18.20;;;10.38;;
27375;SDS011;14844;51.302;6.354;2022-08-21T05:16:06;18.48;;;9.18;;
27375;SDS011;14844;51.302;6.354;2022-08-21T05:18:32;17.42;;;8.60;;
27375;SDS011;14844;51.302;6.354;2022-08-21T05:20:57;20.85;;;8.90;;
27375;SDS011;14844;51.302;6.354;2022-08-21T05:23:23;18.25;;;8.52;;
27375;SDS011;14844;51.302;6.354;2022-08-21T05:25:49;19.98;;;8.13;;
27375;SDS011;14844;51.302;6.354;2022-08-21T05:28:16;18.88;;;8.68;;
27375;SDS011;14844;51.302;6.354;2022-08-21T05:30:43;17.27;;;8.45;;
27375;SDS011;14844;51.302;6.354;2022-08-21T05:33:09;20.55;;;7.88;;
27375;SDS011;14844;51.302;6.354;2022-08-21T05:35:35;18.80;;;7.75;;
27375;SDS011;14844;51.302;6.354;2022-08-21T05:38:02;20.65;;;7.22;;
27375;SDS011;14844;51.302;6.354;2022-08-21T05:40:29;16.02;;;6.50;;
27375;SDS011;14844;51.302;6.354;2022-08-21T05:42:55;13.40;;;6.30;;
27375;SDS011;14844;51.302;6.354;2022-08-21T05:45:29;21.27;;;7.00;;
27375;SDS011;14844;51.302;6.354;2022-08-21T05:47:57;15.68;;;6.50;;
27375;SDS011;14844;51.302;6.354;2022-08-21T05:50:23;15.55;;;6.53;;
27375;SDS011;14844;51.302;6.354;2022-08-21T05:52:48;16.23;;;5.93;;
27375;SDS011;14844;51.302;6.354;2022-08-21T05:55:14;15.82;;;5.90;;
27375;SDS011;14844;51.302;6.354;2022-08-21T05:57:40;19.60;;;6.22;;
27375;SDS011;14844;51.302;6.354;2022-08-21T06:00:06;16.33;;;6.60;;
27375;SDS011;14844;51.302;6.354;2022-08-21T06:02:35;14.50;;;5.80;;
27375;SDS011;14844;51.302;6.354;2022-08-21T06:05:00;14.20;;;5.65;;
27375;SDS011;14844;51.302;6.354;2022-08-21T06:07:26;15.88;;;5.45;;
27375;SDS011;14844;51.302;6.354;2022-08-21T06:09:52;14.55;;;5.63;;
27375;SDS011;14844;51.302;6.354;2022-08-21T06:12:17;14.88;;;5.38;;
27375;SDS011;14844;51.302;6.354;2022-08-21T06:14:43;16.13;;;5.18;;
27375;SDS011;14844;51.302;6.354;2022-08-21T06:17:09;15.13;;;5.10;;
27375;SDS011;14844;51.302;6.354;2022-08-21T06:19:37;16.98;;;5.47;;
27375;SDS011;14844;51.302;6.354;2022-08-21T06:22:03;9.80;;;4.75;;
27375;SDS011;14844;51.302;6.354;2022-08-21T06:24:29;17.77;;;5.45;;
27375;SDS011;14844;51.302;6.354;2022-08-21T06:26:56;16.00;;;4.95;;
27375;SDS011;14844;51.302;6.354;2022-08-21T06:29:22;16.95;;;4.93;;
27375;SDS011;14844;51.302;6.354;2022-08-21T06:31:48;13.68;;;4.80;;
27375;SDS011;14844;51.302;6.354;2022-08-21T06:34:15;15.88;;;5.47;;
27375;SDS011;14844;51.302;6.354;2022-08-21T06:36:41;14.50;;;4.93;;
27375;SDS011;14844;51.302;6.354;2022-08-21T06:39:06;12.68;;;4.65;;
27375;SDS011;14844;51.302;6.354;2022-08-21T06:41:32;17.15;;;4.60;;
27375;SDS011;14844;51.302;6.354;2022-08-21T06:43:58;12.13;;;4.18;;
27375;SDS011;14844;51.302;6.354;2022-08-21T06:46:25;15.02;;;4.25;;
27375;SDS011;14844;51.302;6.354;2022-08-21T06:48:52;12.02;;;4.15;;
27375;SDS011;14844;51.302;6.354;2022-08-21T06:51:17;12.05;;;4.20;;
27375;SDS011;14844;51.302;6.354;2022-08-21T06:53:43;11.75;;;3.90;;
27375;SDS011;14844;51.302;6.354;2022-08-21T06:56:09;13.88;;;4.03;;
27375;SDS011;14844;51.302;6.354;2022-08-21T06:58:34;14.52;;;4.13;;
27375;SDS011;14844;51.302;6.354;2022-08-21T07:01:00;12.52;;;3.70;;
27375;SDS011;14844;51.302;6.354;2022-08-21T07:03:28;17.20;;;4.00;;
27375;SDS011;14844;51.302;6.354;2022-08-21T07:05:57;10.52;;;3.28;;
27375;SDS011;14844;51.302;6.354;2022-08-21T07:08:23;14.88;;;3.13;;
27375;SDS011;14844;51.302;6.354;2022-08-21T07:10:50;12.50;;;3.60;;
27375;SDS011;14844;51.302;6.354;2022-08-21T07:13:17;14.13;;;3.40;;
27375;SDS011;14844;51.302;6.354;2022-08-21T07:15:42;12.68;;;3.53;;
27375;SDS011;14844;51.302;6.354;2022-08-21T07:18:09;18.95;;;3.33;;
27375;SDS011;14844;51.302;6.354;2022-08-21T07:20:35;12.85;;;3.15;;
27375;SDS011;14844;51.302;6.354;2022-08-21T07:23:02;9.38;;;2.70;;
27375;SDS011;14844;51.302;6.354;2022-08-21T07:25:30;13.90;;;2.85;;
27375;SDS011;14844;51.302;6.354;2022-08-21T07:27:56;11.13;;;2.50;;
27375;SDS011;14844;51.302;6.354;2022-08-21T07:30:22;11.68;;;2.30;;
27375;SDS011;14844;51.302;6.354;2022-08-21T07:32:48;9.77;;;2.35;;
27375;SDS011;14844;51.302;6.354;2022-08-21T07:35:17;10.13;;;2.30;;
27375;SDS011;14844;51.302;6.354;2022-08-21T07:37:43;7.65;;;2.25;;
27375;SDS011;14844;51.302;6.354;2022-08-21T07:40:09;11.65;;;1.88;;
27375;SDS011;14844;51.302;6.354;2022-08-21T07:42:39;9.10;;;2.15;;
27375;SDS011;14844;51.302;6.354;2022-08-21T07:45:09;11.88;;;2.60;;
27375;SDS011;14844;51.302;6.354;2022-08-21T07:47:35;11.07;;;2.30;;
27375;SDS011;14844;51.302;6.354;2022-08-21T07:50:01;6.90;;;1.88;;
27375;SDS011;14844;51.302;6.354;2022-08-21T07:52:27;8.63;;;2.35;;
27375;SDS011;14844;51.302;6.354;2022-08-21T07:54:52;8.13;;;2.10;;
27375;SDS011;14844;51.302;6.354;2022-08-21T07:57:18;13.02;;;2.03;;
27375;SDS011;14844;51.302;6.354;2022-08-21T07:59:43;7.82;;;2.25;;
27375;SDS011;14844;51.302;6.354;2022-08-21T08:02:09;10.43;;;2.20;;
27375;SDS011;14844;51.302;6.354;2022-08-21T08:04:35;9.20;;;2.30;;
27375;SDS011;14844;51.302;6.354;2022-08-21T08:07:01;8.30;;;2.00;;
27375;SDS011;14844;51.302;6.354;2022-08-21T08:09:26;14.70;;;2.70;;
27375;SDS011;14844;51.302;6.354;2022-08-21T08:11:53;6.43;;;1.90;;
27375;SDS011;14844;51.302;6.354;2022-08-21T08:14:24;7.10;;;2.08;;
27375;SDS011;14844;51.302;6.354;2022-08-21T08:16:50;9.85;;;1.85;;
27375;SDS011;14844;51.302;6.354;2022-08-21T08:19:15;9.27;;;2.08;;
27375;SDS011;14844;51.302;6.354;2022-08-21T08:21:41;9.55;;;2.00;;
27375;SDS011;14844;51.302;6.354;2022-08-21T08:24:07;10.07;;;1.70;;
27375;SDS011;14844;51.302;6.354;2022-08-21T08:26:32;8.23;;;2.22;;
27375;SDS011;14844;51.302;6.354;2022-08-21T08:28:58;11.25;;;2.35;;
27375;SDS011;14844;51.302;6.354;2022-08-21T08:31:23;10.38;;;2.42;;
27375;SDS011;14844;51.302;6.354;2022-08-21T08:33:49;9.10;;;2.47;;
27375;SDS011;14844;51.302;6.354;2022-08-21T08:36:15;8.77;;;2.22;;
27375;SDS011;14844;51.302;6.354;2022-08-21T08:38:45;5.90;;;1.95;;
27375;SDS011;14844;51.302;6.354;2022-08-21T08:41:19;7.93;;;1.88;;
27375;SDS011;14844;51.302;6.354;2022-08-21T08:43:52;9.93;;;2.10;;
27375;SDS011;14844;51.302;6.354;2022-08-21T08:46:46;8.35;;;2.10;;
27375;SDS011;14844;51.302;6.354;2022-08-21T08:49:26;12.90;;;2.60;;
27375;SDS011;14844;51.302;6.354;2022-08-21T08:54:44;11.10;;;2.47;;
27375;SDS011;14844;51.302;6.354;2022-08-21T08:57:15;9.07;;;1.77;;
27375;SDS011;14844;51.302;6.354;2022-08-21T08:59:44;9.38;;;1.95;;
27375;SDS011;14844;51.302;6.354;2022-08-21T09:02:15;10.80;;;2.50;;
27375;SDS011;14844;51.302;6.354;2022-08-21T09:04:42;6.70;;;1.90;;
27375;SDS011;14844;51.302;6.354;2022-08-21T09:07:20;9.77;;;1.73;;
27375;SDS011;14844;51.302;6.354;2022-08-21T09:12:45;6.20;;;1.50;;
27375;SDS011;14844;51.302;6.354;2022-08-21T09:18:05;5.63;;;1.60;;
27375;SDS011;14844;51.302;6.354;2022-08-21T09:20:48;7.68;;;1.73;;
27375;SDS011;14844;51.302;6.354;2022-08-21T09:28:36;4.53;;;1.20;;
27375;SDS011;14844;51.302;6.354;2022-08-21T09:31:26;7.90;;;1.30;;
27375;SDS011;14844;51.302;6.354;2022-08-21T09:33:49;11.25;;;1.40;;
27375;SDS011;14844;51.302;6.354;2022-08-21T09:36:37;8.90;;;1.50;;
27375;SDS011;14844;51.302;6.354;2022-08-21T09:39:03;4.82;;;1.10;;
27375;SDS011;14844;51.302;6.354;2022-08-21T09:41:30;4.60;;;1.10;;
27375;SDS011;14844;51.302;6.354;2022-08-21T09:43:58;5.47;;;1.17;;
27375;SDS011;14844;51.302;6.354;2022-08-21T09:46:25;6.53;;;1.30;;
27375;SDS011;14844;51.302;6.354;2022-08-21T09:48:53;6.60;;;1.65;;
27375;SDS011;14844;51.302;6.354;2022-08-21T09:51:31;5.47;;;1.20;;
27375;SDS011;14844;51.302;6.354;2022-08-21T09:56:32;6.95;;;1.33;;
27375;SDS011;14844;51.302;6.354;2022-08-21T09:59:19;5.97;;;1.60;;
27375;SDS011;14844;51.302;6.354;2022-08-21T10:01:55;8.73;;;1.60;;
27375;SDS011;14844;51.302;6.354;2022-08-21T10:04:24;6.05;;;1.40;;
27375;SDS011;14844;51.302;6.354;2022-08-21T10:07:05;6.47;;;1.42;;
27375;SDS011;14844;51.302;6.354;2022-08-21T10:09:40;4.88;;;1.45;;
27375;SDS011;14844;51.302;6.354;2022-08-21T10:12:15;3.60;;;1.02;;
27375;SDS011;14844;51.302;6.354;2022-08-21T10:17:57;5.07;;;1.30;;
27375;SDS011;14844;51.302;6.354;2022-08-21T10:23:35;5.47;;;1.60;;
27375;SDS011;14844;51.302;6.354;2022-08-21T10:28:37;8.45;;;1.45;;
27375;SDS011;14844;51.302;6.354;2022-08-21T10:36:33;5.65;;;1.25;;
27375;SDS011;14844;51.302;6.354;2022-08-21T10:39:19;4.25;;;1.27;;
27375;SDS011;14844;51.302;6.354;2022-08-21T10:47:36;4.43;;;1.15;;
27375;SDS011;14844;51.302;6.354;2022-08-21T10:52:56;7.95;;;1.50;;
27375;SDS011;14844;51.302;6.354;2022-08-21T10:55:39;8.43;;;1.67;;
27375;SDS011;14844;51.302;6.354;2022-08-21T10:58:10;7.85;;;1.20;;
27375;SDS011;14844;51.302;6.354;2022-08-21T11:03:41;7.45;;;1.33;;
27375;SDS011;14844;51.302;6.354;2022-08-21T11:06:11;5.88;;;1.42;;
27375;SDS011;14844;51.302;6.354;2022-08-21T11:08:39;7.47;;;1.45;;
27375;SDS011;14844;51.302;6.354;2022-08-21T11:11:23;7.05;;;1.25;;
27375;SDS011;14844;51.302;6.354;2022-08-21T11:14:00;5.57;;;1.38;;
27375;SDS011;14844;51.302;6.354;2022-08-21T11:19:08;6.03;;;1.23;;
27375;SDS011;14844;51.302;6.354;2022-08-21T11:21:45;7.40;;;1.58;;
27375;SDS011;14844;51.302;6.354;2022-08-21T11:27:20;5.80;;;1.50;;
27375;SDS011;14844;51.302;6.354;2022-08-21T11:29:54;5.80;;;1.40;;
27375;SDS011;14844;51.302;6.354;2022-08-21T11:32:42;3.80;;;1.10;;
27375;SDS011;14844;51.302;6.354;2022-08-21T11:38:01;5.25;;;1.33;;
27375;SDS011;14844;51.302;6.354;2022-08-21T11:43:41;6.47;;;1.45;;
27375;SDS011;14844;51.302;6.354;2022-08-21T11:51:56;3.97;;;1.20;;
27375;SDS011;14844;51.302;6.354;2022-08-21T11:54:29;3.88;;;1.00;;
27375;SDS011;14844;51.302;6.354;2022-08-21T11:57:05;4.95;;;1.30;;
27375;SDS011;14844;51.302;6.354;2022-08-21T12:02:24;6.20;;;1.50;;
27375;SDS011;14844;51.302;6.354;2022-08-21T12:04:59;6.07;;;1.35;;
27375;SDS011;14844;51.302;6.354;2022-08-21T12:07:37;6.00;;;1.38;;
27375;SDS011;14844;51.302;6.354;2022-08-21T12:10:11;8.40;;;1.60;;
27375;SDS011;14844;51.302;6.354;2022-08-21T12:12:43;4.00;;;1.13;;
27375;SDS011;14844;51.302;6.354;2022-08-21T12:15:14;4.70;;;1.23;;
27375;SDS011;14844;51.302;6.354;2022-08-21T12:17:57;3.97;;;1.10;;
27375;SDS011;14844;51.302;6.354;2022-08-21T12:25:42;2.83;;;0.98;;
27375;SDS011;14844;51.302;6.354;2022-08-21T12:28:14;4.78;;;1.20;;
27375;SDS011;14844;51.302;6.354;2022-08-21T12:30:47;6.50;;;1.25;;
27375;SDS011;14844;51.302;6.354;2022-08-21T12:35:48;7.38;;;1.63;;
27375;SDS011;14844;51.302;6.354;2022-08-21T12:38:23;4.93;;;1.27;;
27375;SDS011;14844;51.302;6.354;2022-08-21T12:41:00;5.68;;;1.38;;
27375;SDS011;14844;51.302;6.354;2022-08-21T12:43:31;7.70;;;1.30;;
27375;SDS011;14844;51.302;6.354;2022-08-21T12:46:03;5.55;;;1.30;;
27375;SDS011;14844;51.302;6.354;2022-08-21T12:51:23;5.45;;;1.35;;
27375;SDS011;14844;51.302;6.354;2022-08-21T12:53:54;6.05;;;1.42;;
27375;SDS011;14844;51.302;6.354;2022-08-21T12:56:25;5.47;;;1.15;;
27375;SDS011;14844;51.302;6.354;2022-08-21T12:58:57;8.35;;;1.50;;
27375;SDS011;14844;51.302;6.354;2022-08-21T13:04:02;6.97;;;1.40;;
27375;SDS011;14844;51.302;6.354;2022-08-21T13:06:36;5.78;;;1.10;;
27375;SDS011;14844;51.302;6.354;2022-08-21T13:09:05;8.90;;;1.50;;
27375;SDS011;14844;51.302;6.354;2022-08-21T13:11:33;5.07;;;1.40;;
27375;SDS011;14844;51.302;6.354;2022-08-21T13:14:00;11.52;;;1.73;;
27375;SDS011;14844;51.302;6.354;2022-08-21T13:16:28;5.75;;;1.50;;
27375;SDS011;14844;51.302;6.354;2022-08-21T13:18:59;5.88;;;1.23;;
27375;SDS011;14844;51.302;6.354;2022-08-21T13:21:38;6.72;;;1.48;;
27375;SDS011;14844;51.302;6.354;2022-08-21T13:26:39;4.65;;;1.25;;
27375;SDS011;14844;51.302;6.354;2022-08-21T13:29:09;5.68;;;1.25;;
27375;SDS011;14844;51.302;6.354;2022-08-21T13:31:36;4.70;;;1.30;;
27375;SDS011;14844;51.302;6.354;2022-08-21T13:34:04;7.28;;;1.83;;
27375;SDS011;14844;51.302;6.354;2022-08-21T13:36:34;6.80;;;1.50;;
27375;SDS011;14844;51.302;6.354;2022-08-21T13:39:04;4.50;;;1.23;;
27375;SDS011;14844;51.302;6.354;2022-08-21T13:41:33;5.28;;;1.45;;
27375;SDS011;14844;51.302;6.354;2022-08-21T13:44:13;6.68;;;1.27;;
27375;SDS011;14844;51.302;6.354;2022-08-21T13:46:39;9.25;;;1.75;;
27375;SDS011;14844;51.302;6.354;2022-08-21T13:49:05;6.85;;;1.40;;
27375;SDS011;14844;51.302;6.354;2022-08-21T13:51:32;4.53;;;1.10;;
27375;SDS011;14844;51.302;6.354;2022-08-21T13:53:59;6.65;;;1.40;;
27375;SDS011;14844;51.302;6.354;2022-08-21T13:56:26;5.10;;;1.15;;
27375;SDS011;14844;51.302;6.354;2022-08-21T13:58:58;5.88;;;1.40;;
27375;SDS011;14844;51.302;6.354;2022-08-21T14:01:30;5.88;;;1.30;;
27375;SDS011;14844;51.302;6.354;2022-08-21T14:04:23;4.70;;;1.25;;
27375;SDS011;14844;51.302;6.354;2022-08-21T14:07:01;3.85;;;1.10;;
27375;SDS011;14844;51.302;6.354;2022-08-21T14:09:42;6.40;;;1.55;;
27375;SDS011;14844;51.302;6.354;2022-08-21T14:12:16;5.68;;;1.40;;
27375;SDS011;14844;51.302;6.354;2022-08-21T14:14:53;6.28;;;1.60;;
27375;SDS011;14844;51.302;6.354;2022-08-21T14:17:28;7.88;;;1.40;;
27375;SDS011;14844;51.302;6.354;2022-08-21T14:19:57;4.75;;;1.30;;
27375;SDS011;14844;51.302;6.354;2022-08-21T14:24:48;5.35;;;1.20;;
27375;SDS011;14844;51.302;6.354;2022-08-21T14:27:15;5.35;;;1.35;;
27375;SDS011;14844;51.302;6.354;2022-08-21T14:29:42;6.28;;;1.33;;
27375;SDS011;14844;51.302;6.354;2022-08-21T14:32:15;3.92;;;1.05;;
27375;SDS011;14844;51.302;6.354;2022-08-21T14:34:45;3.78;;;1.10;;
27375;SDS011;14844;51.302;6.354;2022-08-21T14:37:10;5.25;;;1.30;;
27375;SDS011;14844;51.302;6.354;2022-08-21T14:39:36;4.28;;;1.10;;
27375;SDS011;14844;51.302;6.354;2022-08-21T14:42:01;4.57;;;1.17;;
27375;SDS011;14844;51.302;6.354;2022-08-21T14:44:27;5.47;;;1.25;;
27375;SDS011;14844;51.302;6.354;2022-08-21T14:46:53;4.53;;;1.20;;
27375;SDS011;14844;51.302;6.354;2022-08-21T14:49:19;4.95;;;1.27;;
27375;SDS011;14844;51.302;6.354;2022-08-21T14:51:45;6.35;;;1.30;;
27375;SDS011;14844;51.302;6.354;2022-08-21T14:54:10;8.35;;;1.40;;
27375;SDS011;14844;51.302;6.354;2022-08-21T14:56:36;5.40;;;1.17;;
27375;SDS011;14844;51.302;6.354;2022-08-21T14:59:03;4.78;;;1.40;;
27375;SDS011;14844;51.302;6.354;2022-08-21T15:01:32;5.90;;;1.27;;
27375;SDS011;14844;51.302;6.354;2022-08-21T15:04:00;5.55;;;1.33;;
27375;SDS011;14844;51.302;6.354;2022-08-21T15:06:26;4.53;;;1.20;;
27375;SDS011;14844;51.302;6.354;2022-08-21T15:08:52;5.07;;;0.85;;
27375;SDS011;14844;51.302;6.354;2022-08-21T15:11:19;6.10;;;1.58;;
27375;SDS011;14844;51.302;6.354;2022-08-21T15:13:46;5.93;;;1.50;;
27375;SDS011;14844;51.302;6.354;2022-08-21T15:16:13;5.72;;;1.48;;
27375;SDS011;14844;51.302;6.354;2022-08-21T15:18:39;5.45;;;1.40;;
27375;SDS011;14844;51.302;6.354;2022-08-21T15:21:05;7.05;;;1.33;;
27375;SDS011;14844;51.302;6.354;2022-08-21T15:23:31;5.03;;;1.35;;
27375;SDS011;14844;51.302;6.354;2022-08-21T15:25:56;5.68;;;1.20;;
27375;SDS011;14844;51.302;6.354;2022-08-21T15:28:25;6.13;;;1.33;;
27375;SDS011;14844;51.302;6.354;2022-08-21T15:30:51;7.38;;;1.50;;
27375;SDS011;14844;51.302;6.354;2022-08-21T15:33:17;5.50;;;1.27;;
27375;SDS011;14844;51.302;6.354;2022-08-21T15:35:43;3.95;;;1.30;;
27375;SDS011;14844;51.302;6.354;2022-08-21T15:38:10;4.93;;;1.20;;
27375;SDS011;14844;51.302;6.354;2022-08-21T15:40:37;5.07;;;1.38;;
27375;SDS011;14844;51.302;6.354;2022-08-21T15:43:04;5.40;;;1.20;;
27375;SDS011;14844;51.302;6.354;2022-08-21T15:45:30;6.20;;;1.30;;
27375;SDS011;14844;51.302;6.354;2022-08-21T15:47:57;7.55;;;1.27;;
27375;SDS011;14844;51.302;6.354;2022-08-21T15:50:24;4.07;;;1.15;;
27375;SDS011;14844;51.302;6.354;2022-08-21T15:52:50;8.05;;;1.48;;
27375;SDS011;14844;51.302;6.354;2022-08-21T15:55:16;5.10;;;1.30;;
27375;SDS011;14844;51.302;6.354;2022-08-21T15:57:46;5.15;;;1.10;;
27375;SDS011;14844;51.302;6.354;2022-08-21T16:00:15;6.68;;;1.33;;
27375;SDS011;14844;51.302;6.354;2022-08-21T16:02:48;8.50;;;1.48;;
27375;SDS011;14844;51.302;6.354;2022-08-21T16:05:18;5.45;;;1.40;;
27375;SDS011;14844;51.302;6.354;2022-08-21T16:07:45;7.47;;;1.65;;
27375;SDS011;14844;51.302;6.354;2022-08-21T16:10:11;5.60;;;1.40;;
27375;SDS011;14844;51.302;6.354;2022-08-21T16:12:42;8.20;;;1.50;;